Time;durP1;ratioP1;P1;durP2;ratioP2;P2;SDS_P1;SDS_P2;PMS_P1;PMS_P2;Temp;Humidity;BMP_temperature;BMP_pressure;BME280_temperature;BME280_humidity;BME280_pressure;Samples;Min_cycle;Max_cycle;Signal;HPM_P1;HPM_P2
2022/06/03 00:00:21;;;;;;;5.07;3.03;;;;;;;12.06;100.00;99523.81;4239530;33;20402;-72
2022/06/03 00:03:25;;;;;;;;;;;;;;;12.01;100.00;99518.34;4239773;33;20080;-73
2022/06/03 00:06:18;;;;;;;6.47;3.35;;;;;;;11.93;100.00;99517.69;4238089;33;19952;-73
2022/06/03 00:09:06;;;;;;;3.80;3.37;;;;;;;11.77;100.00;99518.50;4227565;33;20089;-72
2022/06/03 00:11:56;;;;;;;14.32;3.60;;;;;;;11.93;100.00;99523.09;4238267;33;20045;-72
2022/06/03 00:14:48;;;;;;;3.75;3.40;;;;;;;11.75;100.00;99520.63;4235048;33;20054;-72
2022/06/03 00:17:32;;;;;;;;;;;;;;;11.85;100.00;99531.56;4225936;33;20868;-72
2022/06/03 00:20:11;;;;;;;3.70;3.42;;;;;;;11.76;100.00;99527.69;4229515;33;19937;-72
2022/06/03 00:23:18;;;;;;;6.35;3.53;;;;;;;11.65;100.00;99521.28;4229712;33;20086;-72
2022/06/03 00:26:10;;;;;;;3.35;3.05;;;;;;;11.54;100.00;99528.37;4241526;33;20199;-73
2022/06/03 00:28:37;;;;;;;2.70;2.47;;;;;;;11.45;100.00;99505.56;4242373;33;20068;-71
2022/06/03 00:31:25;;;;;;;3.97;3.50;;;;;;;11.16;100.00;99480.53;4242019;33;20401;-71
2022/06/03 00:33:55;;;;;;;9.73;3.17;;;;;;;11.46;100.00;99534.19;4242296;33;20084;-71
2022/06/03 00:36:33;;;;;;;3.50;3.20;;;;;;;11.23;100.00;99524.31;4228624;33;20060;-71
2022/06/03 00:39:17;;;;;;;3.15;2.58;;;;;;;11.14;100.00;99529.28;4226847;33;20414;-71
2022/06/03 00:42:02;;;;;;;4.45;3.03;;;;;;;10.89;100.00;99481.94;4241560;33;20120;-70
2022/06/03 00:45:00;;;;;;;4.22;3.10;;;;;;;11.09;100.00;99523.81;4239992;33;20077;-72
2022/06/03 00:47:36;;;;;;;4.60;2.78;;;;;;;10.88;100.00;99534.19;4217323;33;20064;-71
2022/06/03 00:50:02;;;;;;;4.57;3.70;;;;;;;10.50;100.00;99487.12;4240933;33;20050;-71
2022/06/03 00:52:40;;;;;;;3.75;3.35;;;;;;;10.60;100.00;99532.28;4241429;33;20357;-72
2022/06/03 00:55:29;;;;;;;4.00;3.17;;;;;;;10.61;100.00;99527.69;4241189;33;20046;-73
2022/06/03 00:58:23;;;;;;;3.95;3.12;;;;;;;10.51;100.00;99526.44;4241403;33;20050;-73
2022/06/03 01:00:55;;;;;;;6.62;3.40;;;;;;;10.46;100.00;99531.72;4234060;33;20128;-73
2022/06/03 01:03:41;;;;;;;4.40;3.20;;;;;;;10.31;100.00;99523.28;4233837;33;20080;-72
2022/06/03 01:06:27;;;;;;;3.83;3.35;;;;;;;10.24;100.00;99528.75;4241441;33;20055;-73
2022/06/03 01:09:21;;;;;;;3.72;3.37;;;;;;;10.26;100.00;99526.69;4241583;33;20058;-72
2022/06/03 01:12:03;;;;;;;7.30;3.37;;;;;;;10.17;100.00;99534.28;4240445;33;20046;-74
2022/06/03 01:14:48;;;;;;;8.35;3.62;;;;;;;10.05;100.00;99525.41;4241569;33;20166;-72
2022/06/03 01:17:50;;;;;;;8.65;3.47;;;;;;;10.07;100.00;99534.06;4239982;33;20371;-73
2022/06/03 01:20:44;;;;;;;5.53;3.80;;;;;;;9.96;100.00;99522.22;4222096;33;20042;-72
2022/06/03 01:23:37;;;;;;;3.90;3.05;;;;;;;9.94;100.00;99518.97;4239728;33;20039;-72
2022/06/03 01:26:43;;;;;;;3.40;3.10;;;;;;;9.93;100.00;99516.50;4240450;33;20086;-73
2022/06/03 01:29:31;;;;;;;6.90;3.60;;;;;;;9.88;100.00;99514.50;4241475;33;20108;-73
2022/06/03 01:32:26;;;;;;;4.20;3.20;;;;;;;9.83;100.00;99509.03;4233421;33;20058;-73
2022/06/03 01:35:31;;;;;;;4.47;3.85;;;;;;;9.77;100.00;99508.06;4227262;34;20118;-73
2022/06/03 01:38:16;;;;;;;3.78;2.83;;;;;;;9.76;100.00;99511.00;4174132;34;20050;-73
2022/06/03 01:40:42;;;;;;;4.37;3.87;;;;;;;9.70;100.00;99506.53;4225511;34;20169;-74
2022/06/03 01:43:35;;;;;;;5.87;3.72;;;;;;;9.50;100.00;99506.88;4226903;34;20474;-73
2022/06/03 01:46:20;;;;;;;;;;;;;;;9.67;100.00;99513.22;4227315;34;20060;-74
2022/06/03 01:49:14;;;;;;;4.12;3.28;;;;;;;9.60;100.00;99507.91;4226903;34;19950;-73
2022/06/03 01:52:21;;;;;;;6.40;3.72;;;;;;;9.44;100.00;99481.72;4224323;33;20051;-72
2022/06/03 01:55:22;;;;;;;5.53;3.40;;;;;;;9.51;100.00;99500.44;4236439;33;20046;-73
2022/06/03 01:57:56;;;;;;;7.55;3.75;;;;;;;9.21;100.00;99455.62;4226952;34;20405;-72
2022/06/03 02:00:34;;;;;;;6.53;3.47;;;;;;;9.30;100.00;99499.91;4227519;34;20038;-72
2022/06/03 02:03:19;;;;;;;8.57;3.78;;;;;;;9.39;100.00;99501.22;4226532;34;20818;-72
2022/06/03 02:06:07;;;;;;;9.52;3.70;;;;;;;9.24;100.00;99492.78;4226861;34;20043;-72
2022/06/03 02:08:52;;;;;;;17.50;4.25;;;;;;;9.08;100.00;99478.97;4226877;34;20342;-73
2022/06/03 02:11:44;;;;;;;10.77;3.75;;;;;;;9.24;100.00;99498.16;4226424;34;20039;-72
2022/06/03 02:15:02;;;;;;;4.20;3.80;;;;;;;9.27;100.00;99503.91;4226836;34;20393;-72
2022/06/03 02:17:45;;;;;;;6.43;4.10;;;;;;;9.27;100.00;99508.47;4234496;33;20038;-71
2022/06/03 02:20:49;;;;;;;6.82;3.83;;;;;;;8.90;100.00;99449.44;4241351;33;20042;-71
2022/06/03 02:23:48;;;;;;;5.40;4.03;;;;;;;9.25;100.00;99497.94;4240522;33;20064;-72
2022/06/03 02:26:39;;;;;;;9.65;4.85;;;;;;;9.23;100.00;99507.25;4234236;33;20058;-71
2022/06/03 02:32:07;;;;;;;15.53;4.00;;;;;;;8.67;100.00;99456.38;4239264;33;20127;-73
2022/06/03 02:35:10;;;;;;;8.63;4.25;;;;;;;9.09;100.00;99498.56;4239976;33;20104;-74
2022/06/03 02:37:55;;;;;;;;;;;;;;;9.14;100.00;99508.63;4234691;33;20031;-73
2022/06/03 02:40:25;;;;;;;6.45;4.40;;;;;;;9.20;100.00;99507.72;4239777;33;19966;-73
2022/06/03 02:43:19;;;;;;;7.10;4.25;;;;;;;8.82;100.00;99457.84;4240293;33;20078;-72
2022/06/03 02:46:14;;;;;;;4.65;4.18;;;;;;;9.21;100.00;99501.31;4238616;33;20031;-73
2022/06/03 02:48:40;;;;;;;6.53;4.30;;;;;;;9.12;100.00;99468.56;4240338;33;20054;-72
2022/06/03 02:51:09;;;;;;;7.07;4.60;;;;;;;9.22;100.00;99505.63;4224887;34;20052;-73
2022/06/03 02:54:21;;;;;;;6.40;4.43;;;;;;;9.40;100.00;99513.63;4211041;34;20481;-73
2022/06/03 02:57:16;;;;;;;11.77;4.22;;;;;;;9.44;100.00;99503.22;4224382;34;20065;-74
2022/06/03 03:00:00;;;;;;;4.72;4.20;;;;;;;9.40;100.00;99516.31;4213378;34;20035;-73
2022/06/03 03:02:50;;;;;;;7.57;4.40;;;;;;;9.37;100.00;99519.47;4238371;33;20213;-73
2022/06/03 03:05:53;;;;;;;7.40;4.65;;;;;;;9.29;100.00;99506.34;4239874;33;20068;-73
2022/06/03 03:08:29;;;;;;;4.65;4.18;;;;;;;9.36;100.00;99517.81;4229552;33;20037;-73
2022/06/03 03:11:04;;;;;;;7.87;4.20;;;;;;;9.36;100.00;99527.75;4240232;33;20405;-73
2022/06/03 03:14:01;;;;;;;7.28;4.28;;;;;;;9.26;100.00;99520.25;4239336;33;20174;-73
2022/06/03 03:16:54;;;;;;;4.80;3.70;;;;;;;9.18;100.00;99472.22;4238543;33;20031;-73
2022/06/03 03:19:45;;;;;;;5.70;4.35;;;;;;;9.16;100.00;99485.03;4240041;33;20054;-73
2022/06/03 03:22:33;;;;;;;6.10;4.12;;;;;;;9.25;100.00;99486.34;4239382;33;20072;-74
2022/06/03 03:25:37;;;;;;;5.53;4.97;;;;;;;9.72;100.00;99534.84;4238645;33;20050;-73
2022/06/03 03:28:20;;;;;;;12.10;6.72;;;;;;;10.07;100.00;99544.81;4236781;33;20050;-73
2022/06/03 03:30:59;;;;;;;11.88;4.28;;;;;;;10.00;100.00;99512.66;4239252;33;20123;-73
2022/06/03 03:34:15;;;;;;;13.98;4.43;;;;;;;10.47;100.00;99540.62;4237721;33;20050;-73
2022/06/03 03:36:51;;;;;;;7.53;4.20;;;;;;;10.40;100.00;99540.72;4236721;33;20068;-73
2022/06/03 03:39:36;;;;;;;7.75;4.07;;;;;;;10.39;100.00;99552.56;4239079;33;20338;-73
2022/06/03 03:42:23;;;;;;;5.93;4.28;;;;;;;10.48;100.00;99556.53;4238340;33;20357;-73
2022/06/03 03:45:25;;;;;;;7.12;4.62;;;;;;;10.01;100.00;99513.47;4242822;33;20358;-72
2022/06/03 03:48:16;;;;;;;5.35;4.00;;;;;;;10.48;100.00;99561.91;4208906;33;20084;-72
2022/06/03 03:51:07;;;;;;;6.80;4.95;;;;;;;10.53;100.00;99564.72;4233558;33;20070;-72
2022/06/03 03:54:08;;;;;;;6.30;4.68;;;;;;;10.23;100.00;99526.31;4228892;34;20090;-73
2022/06/03 03:56:47;;;;;;;7.45;4.37;;;;;;;10.57;100.00;99569.63;4238544;33;20089;-73
2022/06/03 03:59:22;;;;;;;8.30;5.93;;;;;;;10.60;100.00;99569.16;4241718;33;20038;-71
2022/06/03 04:02:07;;;;;;;8.93;5.25;;;;;;;10.66;100.00;99573.59;4241016;33;20061;-73
2022/06/03 04:05:09;;;;;;;5.10;4.65;;;;;;;10.69;100.00;99571.25;4228099;33;20058;-72
2022/06/03 04:07:41;;;;;;;7.25;5.50;;;;;;;10.71;100.00;99571.00;4239907;33;20076;-71
2022/06/03 04:10:20;;;;;;;8.00;5.75;;;;;;;10.76;100.00;99568.41;4242332;33;20050;-70
2022/06/03 04:12:47;;;;;;;10.02;6.35;;;;;;;10.51;100.00;99529.16;4241797;33;20346;-72
2022/06/03 04:15:52;;;;;;;8.93;5.78;;;;;;;10.76;100.00;99573.81;4227626;33;20071;-73
2022/06/03 04:18:34;;;;;;;7.62;5.90;;;;;;;11.04;100.00;99573.03;4240644;33;20365;-71
2022/06/03 04:21:19;;;;;;;11.15;6.10;;;;;;;11.07;100.00;99571.72;4242122;33;20105;-73
2022/06/03 04:23:57;;;;;;;10.02;6.25;;;;;;;11.12;100.00;99576.41;4227610;34;20345;-72
2022/06/03 04:26:44;;;;;;;9.32;6.03;;;;;;;10.87;100.00;99532.56;4235471;33;20375;-74
2022/06/03 04:29:50;;;;;;;18.20;5.65;;;;;;;11.29;100.00;99581.84;4242275;33;20357;-73
2022/06/03 04:32:32;;;;;;;7.05;5.62;;;;;;;11.31;100.00;99566.25;4228229;33;20950;-73
2022/06/03 04:35:18;;;;;;;8.00;6.03;;;;;;;11.44;100.00;99590.25;4242022;33;20060;-73
2022/06/03 04:38:15;;;;;;;7.87;5.70;;;;;;;11.58;100.00;99596.13;4241230;33;20498;-75
2022/06/03 04:40:41;;;;;;;8.07;5.62;;;;;;;11.49;100.00;99597.56;4241991;33;20068;-72
2022/06/03 04:43:46;;;;;;;12.25;7.12;;;;;;;11.60;100.00;99594.03;4239636;33;20042;-74
2022/06/03 04:46:24;;;;;;;12.25;5.32;;;;;;;11.91;100.00;99595.34;4240192;33;20043;-73
2022/06/03 04:49:31;;;;;;;9.20;6.30;;;;;;;12.02;100.00;99596.37;4242003;33;20889;-73
2022/06/03 04:52:09;;;;;;;10.23;5.18;;;;;;;12.15;100.00;99589.84;4239716;33;20380;-74
2022/06/03 04:54:44;;;;;;;12.02;5.18;;;;;;;11.94;100.00;99556.31;4241418;33;20043;-73
2022/06/03 04:57:22;;;;;;;9.48;5.53;;;;;;;12.33;100.00;99603.09;4240491;33;20039;-72
2022/06/03 05:00:34;;;;;;;15.70;5.32;;;;;;;12.41;100.00;99606.41;4231202;33;20061;-74
2022/06/03 05:03:21;;;;;;;5.78;4.72;;;;;;;12.70;100.00;99613.31;4227187;34;20097;-74
2022/06/03 05:06:06;;;;;;;11.57;5.43;;;;;;;13.15;100.00;99610.66;4214999;34;20057;-72
2022/06/03 05:08:47;;;;;;;13.52;5.10;;;;;;;13.42;100.00;99608.81;4227198;34;20034;-74
2022/06/03 05:11:50;;;;;;;10.25;5.87;;;;;;;13.56;100.00;99619.22;4235533;33;20929;-73
2022/06/03 05:14:38;;;;;;;7.93;4.97;;;;;;;13.78;100.00;99611.84;4225438;34;20400;-72
2022/06/03 05:17:24;;;;;;;11.55;4.85;;;;;;;13.92;100.00;99611.47;4240919;33;20406;-75
2022/06/03 05:20:05;;;;;;;8.65;5.50;;;;;;;13.76;100.00;99570.72;4239456;33;20060;-75
2022/06/03 05:22:57;;;;;;;14.63;5.30;;;;;;;13.95;100.00;99616.34;4239307;33;20051;-75
2022/06/03 05:25:57;;;;;;;10.35;5.97;;;;;;;14.23;100.00;99627.94;4241666;33;20068;-74
2022/06/03 05:28:27;;;;;;;14.50;6.72;;;;;;;14.39;100.00;99616.16;4240568;33;20377;-76
2022/06/03 05:31:24;;;;;;;14.15;4.75;;;;;;;14.39;100.00;99629.72;4239559;33;20065;-74
2022/06/03 05:34:32;;;;;;;15.80;5.35;;;;;;;14.57;100.00;99633.06;4241367;33;20072;-74
2022/06/03 05:37:09;;;;;;;9.07;4.70;;;;;;;14.53;100.00;99639.03;4237685;33;20076;-76
2022/06/03 05:39:42;;;;;;;10.27;4.62;;;;;;;14.35;100.00;99631.28;4225439;34;20035;-76
2022/06/03 05:42:29;;;;;;;;;;;;;;;14.05;100.00;99578.53;4227452;34;20083;-75
2022/06/03 05:45:12;;;;;;;20.25;4.40;;;;;;;14.48;100.00;99630.84;4226514;34;20360;-75
2022/06/03 05:47:41;;;;;;;7.80;4.37;;;;;;;14.56;100.00;99631.44;4232564;33;20066;-76
2022/06/03 05:50:33;;;;;;;6.30;3.90;;;;;;;14.57;100.00;99630.34;4232936;33;20058;-76
2022/06/03 05:53:02;;;;;;;6.00;3.45;;;;;;;14.66;100.00;99631.53;4219138;33;20047;-76
2022/06/03 05:55:51;;;;;;;10.75;3.37;;;;;;;14.75;100.00;99632.66;4239093;33;20086;-76
2022/06/03 05:58:42;;;;;;;5.37;3.00;;;;;;;14.84;100.00;99633.81;4238323;33;20046;-76
2022/06/03 06:01:33;;;;;;;6.22;3.17;;;;;;;14.93;100.00;99631.41;4237262;33;20066;-76
2022/06/03 06:04:37;;;;;;;3.80;2.87;;;;;;;15.01;100.00;99632.78;4224595;34;20076;-74
2022/06/03 06:07:22;;;;;;;15.55;3.45;;;;;;;14.95;100.00;99629.25;4224147;34;20428;-76
2022/06/03 06:10:28;;;;;;;6.70;3.67;;;;;;;14.85;100.00;99630.03;4224998;34;20076;-76
2022/06/03 06:13:21;;;;;;;10.43;3.50;;;;;;;15.13;100.00;99636.09;4202450;34;20064;-77
2022/06/03 06:16:03;;;;;;;4.55;2.55;;;;;;;14.89;100.00;99606.72;4212884;34;20031;-75
2022/06/03 06:18:48;;;;;;;9.23;3.92;;;;;;;15.19;100.00;99632.34;4225541;34;20039;-77
2022/06/03 06:21:44;;;;;;;6.35;3.05;;;;;;;15.23;100.00;99638.84;4226143;33;20078;-76
2022/06/03 06:24:15;;;;;;;5.93;2.90;;;;;;;15.43;100.00;99640.03;4212813;34;20060;-75
2022/06/03 06:26:41;;;;;;;5.87;3.42;;;;;;;15.48;100.00;99637.31;4226219;34;20134;-75
2022/06/03 06:29:35;;;;;;;8.48;3.50;;;;;;;15.28;100.00;99593.84;4224882;34;20031;-74
2022/06/03 06:32:14;;;;;;;5.43;3.20;;;;;;;15.82;100.00;99631.44;4211954;34;20046;-75
2022/06/03 06:34:49;;;;;;;5.97;3.15;;;;;;;15.94;100.00;99634.72;4226772;34;20448;-75
2022/06/03 06:37:31;;;;;;;7.90;3.00;;;;;;;15.82;100.00;99639.59;4225415;34;20077;-76
2022/06/03 06:40:09;;;;;;;11.80;2.80;;;;;;;16.12;100.00;99629.84;4213133;34;20367;-74
2022/06/03 06:42:58;;;;;;;5.97;3.97;;;;;;;16.11;100.00;99639.06;4226050;34;20047;-75
2022/06/03 06:45:39;;;;;;;7.30;3.25;;;;;;;15.88;100.00;99597.78;4226435;34;20054;-75
2022/06/03 06:48:25;;;;;;;4.90;3.17;;;;;;;15.91;100.00;99597.25;4226302;34;20043;-76
2022/06/03 06:51:02;;;;;;;2.83;2.58;;;;;;;16.27;100.00;99632.53;4226584;34;20069;-76
2022/06/03 06:53:42;;;;;;;2.80;2.60;;;;;;;16.22;100.00;99637.16;4224749;34;20352;-75
2022/06/03 06:56:30;;;;;;;15.85;2.33;;;;;;;16.22;100.00;99635.25;4223839;34;20072;-75
2022/06/03 06:58:59;;;;;;;;;;;;;;;16.39;100.00;99631.47;4225388;34;20046;-74
2022/06/03 07:01:32;;;;;;;5.22;1.98;;;;;;;16.30;100.00;99636.63;4225947;33;19999;-74
2022/06/03 07:04:02;;;;;;;9.60;2.70;;;;;;;16.12;100.00;99586.38;4224709;34;20479;-75
2022/06/03 07:06:38;;;;;;;5.87;2.60;;;;;;;16.37;100.00;99626.28;4225914;34;20058;-74
2022/06/03 07:09:08;;;;;;;2.92;1.92;;;;;;;16.59;100.00;99628.69;4226239;34;20108;-74
2022/06/03 07:11:51;;;;;;;3.25;2.10;;;;;;;16.47;100.00;99625.47;4225569;34;20043;-77
2022/06/03 07:14:21;;;;;;;1.70;1.60;;;;;;;16.56;100.00;99618.38;4226138;34;20409;-74
2022/06/03 07:20:07;;;;;;;7.95;1.98;;;;;;;16.68;100.00;99610.72;4226046;34;20043;-73
2022/06/03 07:22:48;;;;;;;2.50;1.80;;;;;;;16.52;100.00;99568.38;4225748;34;20326;-73
2022/06/03 07:25:45;;;;;;;3.28;2.40;;;;;;;16.95;100.00;99609.59;4225974;34;20097;-73
2022/06/03 07:28:27;;;;;;;4.57;1.92;;;;;;;17.00;100.00;99612.28;4225433;34;20069;-74
2022/06/03 07:31:11;;;;;;;2.12;2.03;;;;;;;16.94;100.00;99613.41;4225580;34;20092;-75
2022/06/03 07:33:46;;;;;;;1.58;1.50;;;;;;;16.79;100.00;99583.53;4226084;34;20034;-75
2022/06/03 07:36:46;;;;;;;1.40;1.30;;;;;;;17.06;100.00;99611.19;4224709;34;20414;-75
2022/06/03 07:39:29;;;;;;;1.67;1.58;;;;;;;17.04;100.00;99599.78;4212822;34;20068;-75
2022/06/03 07:42:06;;;;;;;3.42;2.33;;;;;;;16.69;100.00;99574.31;4225181;34;20085;-75
2022/06/03 07:44:46;;;;;;;3.05;2.17;;;;;;;17.06;100.00;99616.62;4225882;34;20460;-74
2022/06/03 07:47:15;;;;;;;2.70;2.15;;;;;;;16.69;100.00;99541.69;4225928;34;20066;-74
2022/06/03 07:49:47;;;;;;;2.15;1.55;;;;;;;16.83;100.00;99573.69;4225937;33;20419;-74
2022/06/03 07:52:27;;;;;;;2.08;1.73;;;;;;;17.13;100.00;99615.50;4225405;34;20077;-74
2022/06/03 07:54:58;;;;;;;1.37;1.25;;;;;;;17.04;100.00;99621.53;4225167;34;20060;-73
2022/06/03 07:57:28;;;;;;;1.48;1.40;;;;;;;16.99;100.00;99586.19;4225459;34;20090;-74
2022/06/03 07:59:58;;;;;;;1.05;1.00;;;;;;;17.03;100.00;99603.56;4225695;34;20503;-73
2022/06/03 08:02:31;;;;;;;4.45;1.60;;;;;;;17.11;100.00;99617.72;4223821;34;20065;-76
2022/06/03 08:05:08;;;;;;;2.28;1.20;;;;;;;16.97;100.00;99618.28;4225625;34;20077;-75
2022/06/03 08:13:12;;;;;;;1.45;1.37;;;;;;;17.54;100.00;99609.88;4225374;34;20347;-74
2022/06/03 08:15:43;;;;;;;1.20;1.20;;;;;;;17.61;100.00;99619.34;4225654;34;20059;-76
2022/06/03 08:18:14;;;;;;;1.45;1.35;;;;;;;17.69;100.00;99607.03;4224544;34;20063;-75
2022/06/03 08:20:47;;;;;;;;;;;;;;;17.82;98.30;99615.66;4226231;33;20051;-77
2022/06/03 08:23:17;;;;;;;4.07;1.70;;;;;;;17.91;99.91;99611.28;4225144;34;19938;-76
2022/06/03 08:25:46;;;;;;;1.30;1.30;;;;;;;17.67;100.00;99571.09;4224653;34;20050;-78
2022/06/03 08:28:20;;;;;;;1.10;1.10;;;;;;;17.91;100.00;99609.34;4225244;33;20059;-76
2022/06/03 08:30:49;;;;;;;1.23;1.23;;;;;;;18.08;100.00;99606.22;4227977;34;20043;-76
2022/06/03 08:33:46;;;;;;;2.62;1.27;;;;;;;17.94;100.00;99605.25;4228090;34;20034;-76
2022/06/03 08:36:16;;;;;;;1.35;1.30;;;;;;;18.04;97.64;99607.88;4225218;34;20064;-74
2022/06/03 08:38:48;;;;;;;1.80;1.42;;;;;;;17.76;98.91;99563.94;4228047;34;20061;-74
2022/06/03 08:41:40;;;;;;;1.92;1.50;;;;;;;17.98;95.49;99619.91;4235857;33;20115;-75
2022/06/03 08:44:34;;;;;;;3.62;1.48;;;;;;;17.90;93.05;99612.34;4239676;33;20075;-76
2022/06/03 08:47:06;;;;;;;1.27;1.27;;;;;;;18.12;96.70;99592.84;4241929;33;20104;-75
2022/06/03 08:50:25;;;;;;;0.88;0.88;;;;;;;18.04;99.90;99599.72;4241988;33;20357;-74
2022/06/03 08:52:55;;;;;;;2.17;1.42;;;;;;;18.17;98.47;99605.59;4224923;33;20034;-74
2022/06/03 08:55:33;;;;;;;1.40;1.30;;;;;;;18.18;98.95;99601.78;4240080;33;20381;-78
2022/06/03 08:58:09;;;;;;;1.55;1.23;;;;;;;17.99;94.46;99613.37;4241321;33;20449;-74
2022/06/03 09:00:50;;;;;;;3.12;1.62;;;;;;;17.96;95.09;99613.94;4241576;33;20086;-74
2022/06/03 09:03:21;;;;;;;3.00;1.48;;;;;;;17.76;96.12;99577.56;4240482;33;20066;-74
2022/06/03 09:05:59;;;;;;;1.40;1.40;;;;;;;17.89;97.88;99569.88;4241936;33;20051;-76
2022/06/03 09:09:02;;;;;;;1.95;1.77;;;;;;;18.09;91.47;99616.03;4241343;33;20054;-74
2022/06/03 09:11:43;;;;;;;2.62;2.37;;;;;;;18.34;92.31;99611.44;4233201;33;20069;-73
2022/06/03 09:14:17;;;;;;;1.02;1.02;;;;;;;18.49;90.78;99608.59;4225416;34;20135;-74
2022/06/03 09:16:46;;;;;;;1.27;1.25;;;;;;;18.48;95.16;99601.50;4226943;34;20089;-74
2022/06/03 09:19:32;;;;;;;2.12;1.50;;;;;;;18.40;98.50;99555.78;4226668;34;20072;-74
2022/06/03 09:22:07;;;;;;;2.85;1.33;;;;;;;19.07;100.00;99595.97;4225191;34;20046;-75
2022/06/03 09:24:37;;;;;;;1.60;1.55;;;;;;;19.23;93.29;99599.31;4227281;34;20072;-76
2022/06/03 09:27:04;;;;;;;9.98;1.17;;;;;;;19.03;85.70;99595.75;4226997;34;20031;-76
2022/06/03 09:29:31;;;;;;;1.00;1.00;;;;;;;19.01;83.35;99602.59;4225718;34;20348;-77
2022/06/03 09:32:01;;;;;;;2.85;1.40;;;;;;;19.15;92.48;99595.31;4226078;34;20225;-74
2022/06/03 09:34:38;;;;;;;2.28;1.17;;;;;;;19.22;90.83;99608.59;4226500;34;20323;-78
2022/06/03 09:37:05;;;;;;;1.05;1.05;;;;;;;19.30;90.06;99609.84;4225096;34;20064;-77
2022/06/03 09:39:32;;;;;;;1.25;1.15;;;;;;;19.40;93.24;99596.87;4225788;33;20369;-71
2022/06/03 09:41:59;;;;;;;1.60;1.60;;;;;;;19.18;86.83;99607.56;4235805;33;20046;-70
2022/06/03 09:44:27;;;;;;;1.02;1.02;;;;;;;18.97;88.77;99601.53;4239637;33;20089;-71
2022/06/03 09:47:00;;;;;;;1.50;1.40;;;;;;;18.83;86.70;99558.56;4240392;33;20213;-70
2022/06/03 09:49:30;;;;;;;1.40;1.40;;;;;;;19.21;92.85;99596.87;4238070;33;20046;-69
2022/06/03 09:51:56;;;;;;;2.67;1.27;;;;;;;18.89;92.62;99551.16;4240027;33;20096;-71
2022/06/03 09:54:24;;;;;;;1.15;1.15;;;;;;;18.96;83.84;99589.00;4227441;33;20031;-70
2022/06/03 09:57:03;;;;;;;3.05;1.30;;;;;;;18.99;84.69;99593.88;4239925;33;20098;-70
2022/06/03 09:59:31;;;;;;;4.78;1.30;;;;;;;18.91;82.60;99550.84;4238476;33;20401;-70
2022/06/03 10:01:58;;;;;;;5.25;1.10;;;;;;;19.07;92.51;99568.66;4240249;33;20047;-69
2022/06/03 10:04:24;;;;;;;1.62;1.12;;;;;;;19.20;96.35;99559.75;4240710;33;20095;-70
2022/06/03 10:06:53;;;;;;;2.28;1.10;;;;;;;19.39;81.96;99564.41;4240082;33;20064;-70
2022/06/03 10:17:46;;;;;;;2.37;1.58;;;;;;;19.20;76.30;99540.62;4240398;33;20077;-70
2022/06/03 10:20:12;;;;;;;2.92;1.08;;;;;;;19.51;85.11;99572.94;4240265;33;20042;-72
2022/06/03 10:22:40;;;;;;;3.10;1.10;;;;;;;19.43;84.19;99587.28;4238604;33;20038;-70
2022/06/03 10:25:09;;;;;;;1.00;1.00;;;;;;;19.47;89.37;99577.41;4239816;33;20080;-69
2022/06/03 10:27:36;;;;;;;2.60;1.20;;;;;;;19.52;85.98;99547.28;4239649;33;20096;-69
2022/06/03 10:30:05;;;;;;;1.55;1.20;;;;;;;19.97;85.15;99574.19;4238461;33;20120;-70
2022/06/03 10:32:33;;;;;;;4.32;1.20;;;;;;;20.10;78.69;99589.00;4237139;33;20382;-70
2022/06/03 10:35:13;;;;;;;1.75;1.65;;;;;;;20.07;72.06;99538.50;4239709;33;20102;-69
2022/06/03 10:37:53;;;;;;;1.27;1.05;;;;;;;20.46;67.98;99569.25;4239959;33;20349;-69
2022/06/03 10:40:21;;;;;;;2.12;1.20;;;;;;;20.36;72.22;99525.66;4226498;33;20051;-71
2022/06/03 10:42:49;;;;;;;1.10;1.10;;;;;;;20.28;68.30;99525.25;4225775;34;20042;-71
2022/06/03 10:45:16;;;;;;;5.32;1.40;;;;;;;20.62;66.22;99559.63;4226478;34;20513;-69
2022/06/03 10:47:47;;;;;;;1.85;1.75;;;;;;;20.16;71.92;99511.25;4225750;34;20047;-70
2022/06/03 10:50:29;;;;;;;1.10;1.10;;;;;;;20.83;76.63;99561.97;4232721;33;20063;-67
2022/06/03 11:01:31;;;;;;;2.03;1.30;;;;;;;20.09;71.70;99543.66;4238253;33;20076;-69
2022/06/03 11:03:58;;;;;;;1.50;1.40;;;;;;;19.52;83.71;99535.53;4239545;33;20050;-70
2022/06/03 11:06:31;;;;;;;1.23;1.12;;;;;;;20.20;90.21;99541.53;4239118;33;20046;-70
2022/06/03 11:09:00;;;;;;;4.00;1.50;;;;;;;21.02;87.82;99535.28;4239208;33;20808;-69
2022/06/03 11:11:39;;;;;;;1.60;1.10;;;;;;;21.81;76.75;99529.66;4237359;33;20578;-70
2022/06/03 11:14:32;;;;;;;2.80;1.15;;;;;;;22.70;65.60;99533.34;4239625;33;20390;-70
2022/06/03 11:17:16;;;;;;;4.10;2.40;;;;;;;23.35;64.71;99525.41;4238147;33;20064;-70
2022/06/03 11:19:49;;;;;;;4.85;1.25;;;;;;;22.89;49.95;99535.03;4238105;33;20077;-72
2022/06/03 11:22:19;;;;;;;2.83;1.27;;;;;;;23.30;58.68;99523.63;4235308;33;20068;-69
2022/06/03 11:25:12;;;;;;;1.27;1.27;;;;;;;24.26;52.59;99520.75;4239604;33;20358;-70
2022/06/03 11:27:50;;;;;;;2.25;1.60;;;;;;;24.55;49.49;99493.59;4237310;33;20421;-70
2022/06/03 11:30:49;;;;;;;1.50;1.50;;;;;;;23.85;43.39;99489.16;4238817;33;20059;-70
2022/06/03 11:33:32;;;;;;;1.25;1.25;;;;;;;23.46;46.08;99501.19;4221517;33;20038;-71
2022/06/03 11:36:19;;;;;;;1.27;1.17;;;;;;;24.56;42.34;99520.81;4239473;33;20076;-71
2022/06/03 11:38:55;;;;;;;6.62;1.37;;;;;;;25.09;47.62;99517.75;4238043;33;20046;-70
2022/06/03 11:41:26;;;;;;;3.00;1.20;;;;;;;25.40;44.43;99494.50;4237833;33;20047;-69
2022/06/03 11:44:09;;;;;;;4.85;1.50;;;;;;;23.94;50.00;99520.19;4226607;33;20057;-71
2022/06/03 11:46:47;;;;;;;2.65;1.73;;;;;;;23.80;42.16;99524.25;4239093;33;20059;-70
2022/06/03 11:49:19;;;;;;;1.58;1.20;;;;;;;23.90;47.98;99512.91;4237728;33;20068;-70
2022/06/03 11:51:47;;;;;;;4.20;1.00;;;;;;;23.35;43.78;99476.75;4233872;33;20077;-72
2022/06/03 11:54:17;;;;;;;1.55;1.45;;;;;;;23.55;47.86;99480.78;4238775;33;20050;-69
2022/06/03 11:56:45;;;;;;;1.48;1.35;;;;;;;23.02;51.45;99495.63;4238031;33;20046;-70
2022/06/03 11:59:39;;;;;;;2.03;1.00;;;;;;;24.13;51.42;99499.75;4238939;33;20072;-70
2022/06/03 12:02:21;;;;;;;1.67;1.48;;;;;;;24.24;51.14;99500.22;4239269;33;20058;-70
2022/06/03 12:05:04;;;;;;;1.30;1.20;;;;;;;24.18;57.45;99474.81;4241388;33;20038;-69
2022/06/03 12:07:50;;;;;;;1.70;1.55;;;;;;;23.97;60.43;99493.19;4239921;33;20054;-70
2022/06/03 12:10:40;;;;;;;1.15;1.05;;;;;;;21.80;59.92;99484.22;4229434;33;20046;-70
2022/06/03 12:13:15;;;;;;;1.12;1.12;;;;;;;22.19;68.08;99490.84;4214931;33;20096;-69
2022/06/03 12:15:45;;;;;;;1.15;1.15;;;;;;;23.37;55.81;99481.94;4241981;33;20046;-69
2022/06/03 12:18:11;;;;;;;1.00;1.00;;;;;;;23.37;59.74;99484.69;4241784;33;20414;-67
2022/06/03 12:20:52;;;;;;;3.83;1.15;;;;;;;23.04;61.32;99449.44;4241206;33;20093;-72
2022/06/03 12:23:19;;;;;;;1.00;1.00;;;;;;;23.44;53.88;99474.03;4241611;33;20045;-70
2022/06/03 12:25:48;;;;;;;1.20;1.20;;;;;;;23.73;63.59;99486.25;4240616;33;20034;-70
2022/06/03 12:28:32;;;;;;;1.17;1.05;;;;;;;23.96;58.33;99486.88;4241397;33;20095;-72
2022/06/03 12:31:17;;;;;;;3.03;1.15;;;;;;;24.48;55.54;99485.88;4241161;33;20090;-70
2022/06/03 12:33:54;;;;;;;1.15;1.15;;;;;;;24.44;49.41;99479.41;4241602;33;20058;-70
2022/06/03 12:36:36;;;;;;;1.40;1.17;;;;;;;22.10;60.72;99469.69;4239628;33;20051;-69
2022/06/03 12:39:04;;;;;;;1.30;1.20;;;;;;;22.45;61.04;99439.69;4239233;33;20051;-71
2022/06/03 12:41:46;;;;;;;1.00;1.00;;;;;;;21.92;62.63;99437.81;4239667;33;20050;-67
2022/06/03 12:44:31;;;;;;;;;;;;;;;23.14;63.38;99467.56;4241647;33;20066;-69
2022/06/03 12:47:23;;;;;;;2.12;1.33;;;;;;;24.12;57.46;99465.97;4241513;33;20082;-71
2022/06/03 12:49:57;;;;;;;3.55;1.25;;;;;;;23.45;56.10;99472.06;4216143;33;20055;-69
2022/06/03 12:52:27;;;;;;;1.30;1.17;;;;;;;23.35;51.39;99464.97;4241150;33;20064;-71
2022/06/03 12:54:58;;;;;;;1.27;1.20;;;;;;;23.17;56.42;99464.97;4241692;33;20372;-69
2022/06/03 12:57:55;;;;;;;1.48;1.30;;;;;;;22.98;57.21;99450.72;4240586;33;20057;-69
2022/06/03 13:00:26;;;;;;;1.95;1.00;;;;;;;22.85;58.36;99458.78;4240707;33;20069;-71
2022/06/03 13:03:01;;;;;;;6.22;1.30;;;;;;;22.89;65.40;99458.16;4240671;33;20050;-68
2022/06/03 13:05:37;;;;;;;7.22;2.00;;;;;;;22.24;58.56;99446.81;4241061;33;20085;-69